sensor_id;sensor_type;location;lat;lon;timestamp;pressure;altitude;pressure_sealevel;temperature;humidity
53647;BME280;39550;52.230;5.194;2022-12-24T00:00:15;100378.06;;;6.76;93.29
53647;BME280;39550;52.230;5.194;2022-12-24T00:02:40;100385.75;;;6.76;93.54
53647;BME280;39550;52.230;5.194;2022-12-24T00:05:06;100384.09;;;6.78;94.11
53647;BME280;39550;52.230;5.194;2022-12-24T00:07:31;100400.28;;;6.77;93.79
53647;BME280;39550;52.230;5.194;2022-12-24T00:09:56;100392.59;;;6.77;93.24
53647;BME280;39550;52.230;5.194;2022-12-24T00:12:22;100397.72;;;6.77;93.32
53647;BME280;39550;52.230;5.194;2022-12-24T00:14:47;100390.03;;;6.77;93.25
53647;BME280;39550;52.230;5.194;2022-12-24T00:17:12;100395.16;;;6.77;94.01
53647;BME280;39550;52.230;5.194;2022-12-24T00:19:37;100399.41;;;6.77;93.63
53647;BME280;39550;52.230;5.194;2022-12-24T00:22:03;100397.72;;;6.77;93.00
53647;BME280;39550;52.230;5.194;2022-12-24T00:24:28;100401.13;;;6.78;93.22
53647;BME280;39550;52.230;5.194;2022-12-24T00:26:53;100400.28;;;6.77;92.86
53647;BME280;39550;52.230;5.194;2022-12-24T00:29:19;100405.41;;;6.77;93.42
53647;BME280;39550;52.230;5.194;2022-12-24T00:31:44;100400.28;;;6.77;93.83
53647;BME280;39550;52.230;5.194;2022-12-24T00:34:09;100416.50;;;6.78;93.85
53647;BME280;39550;52.230;5.194;2022-12-24T00:36:34;100425.91;;;6.77;93.78
53647;BME280;39550;52.230;5.194;2022-12-24T00:38:59;100421.63;;;6.78;93.11
53647;BME280;39550;52.230;5.194;2022-12-24T00:41:25;100425.06;;;6.78;93.60
53647;BME280;39550;52.230;5.194;2022-12-24T00:43:53;100419.06;;;6.78;93.83
53647;BME280;39550;52.230;5.194;2022-12-24T00:46:19;100428.47;;;6.79;92.97
53647;BME280;39550;52.230;5.194;2022-12-24T00:48:44;100420.78;;;6.77;93.55
53647;BME280;39550;52.230;5.194;2022-12-24T00:51:09;100431.88;;;6.78;93.63
53647;BME280;39550;52.230;5.194;2022-12-24T00:53:35;100443.81;;;6.77;93.13
53647;BME280;39550;52.230;5.194;2022-12-24T00:56:00;100446.38;;;6.77;93.94
53647;BME280;39550;52.230;5.194;2022-12-24T00:58:25;100458.34;;;6.78;93.91
53647;BME280;39550;52.230;5.194;2022-12-24T01:00:50;100458.34;;;6.78;93.92
53647;BME280;39550;52.230;5.194;2022-12-24T01:03:15;100466.06;;;6.80;93.29
53647;BME280;39550;52.230;5.194;2022-12-24T01:05:41;100472.00;;;6.79;93.48
53647;BME280;39550;52.230;5.194;2022-12-24T01:08:06;100467.72;;;6.78;93.18
53647;BME280;39550;52.230;5.194;2022-12-24T01:10:31;100466.88;;;6.77;93.98
53647;BME280;39550;52.230;5.194;2022-12-24T01:12:59;100480.50;;;6.76;93.29
53647;BME280;39550;52.230;5.194;2022-12-24T01:15:24;100487.34;;;6.77;93.33
53647;BME280;39550;52.230;5.194;2022-12-24T01:17:49;100488.19;;;6.76;93.08
53647;BME280;39550;52.230;5.194;2022-12-24T01:20:15;100463.13;;;6.60;94.25
53647;BME280;39550;52.230;5.194;2022-12-24T01:22:40;100507.84;;;6.77;93.53
53647;BME280;39550;52.230;5.194;2022-12-24T01:25:06;100497.56;;;6.74;94.11
53647;BME280;39550;52.230;5.194;2022-12-24T01:27:31;100504.38;;;6.75;93.83
53647;BME280;39550;52.230;5.194;2022-12-24T01:29:57;100501.81;;;6.75;93.77
53647;BME280;39550;52.230;5.194;2022-12-24T01:32:22;100505.25;;;6.74;93.30
53647;BME280;39550;52.230;5.194;2022-12-24T01:34:47;100513.75;;;6.73;93.48
53647;BME280;39550;52.230;5.194;2022-12-24T01:37:13;100518.88;;;6.73;94.13
53647;BME280;39550;52.230;5.194;2022-12-24T01:39:38;100526.53;;;6.73;93.47
53647;BME280;39550;52.230;5.194;2022-12-24T01:42:11;100521.44;;;6.73;93.49
53647;BME280;39550;52.230;5.194;2022-12-24T01:45:21;100524.00;;;6.73;93.62
53647;BME280;39550;52.230;5.194;2022-12-24T01:47:44;100522.25;;;6.72;93.71
53647;BME280;39550;52.230;5.194;2022-12-24T01:50:12;100524.81;;;6.72;94.22
53647;BME280;39550;52.230;5.194;2022-12-24T01:52:38;100523.09;;;6.71;94.28
53647;BME280;39550;52.230;5.194;2022-12-24T01:55:09;100528.19;;;6.71;93.76
53647;BME280;39550;52.230;5.194;2022-12-24T01:57:49;100534.19;;;6.70;93.62
53647;BME280;39550;52.230;5.194;2022-12-24T02:00:20;100527.31;;;6.69;93.70
53647;BME280;39550;52.230;5.194;2022-12-24T02:02:46;100538.38;;;6.68;93.50
53647;BME280;39550;52.230;5.194;2022-12-24T02:07:40;100550.34;;;6.68;94.53
53647;BME280;39550;52.230;5.194;2022-12-24T02:10:09;100551.16;;;6.67;93.91
53647;BME280;39550;52.230;5.194;2022-12-24T02:12:35;100558.00;;;6.66;93.70
53647;BME280;39550;52.230;5.194;2022-12-24T02:15:02;100565.69;;;6.66;94.11
53647;BME280;39550;52.230;5.194;2022-12-24T02:17:32;100569.06;;;6.65;93.71
53647;BME280;39550;52.230;5.194;2022-12-24T02:20:09;100574.19;;;6.65;93.73
53647;BME280;39550;52.230;5.194;2022-12-24T02:30:30;100581.88;;;6.65;93.75
53647;BME280;39550;52.230;5.194;2022-12-24T02:35:32;100587.81;;;6.64;94.02
53647;BME280;39550;52.230;5.194;2022-12-24T02:40:49;100594.66;;;6.65;94.33
53647;BME280;39550;52.230;5.194;2022-12-24T02:43:27;100580.97;;;6.63;94.20
53647;BME280;39550;52.230;5.194;2022-12-24T02:45:55;100590.34;;;6.62;93.48
53647;BME280;39550;52.230;5.194;2022-12-24T02:48:24;100592.88;;;6.61;94.21
53647;BME280;39550;52.230;5.194;2022-12-24T02:50:54;100593.72;;;6.60;93.92
53647;BME280;39550;52.230;5.194;2022-12-24T02:53:22;100598.81;;;6.60;93.77
53647;BME280;39550;52.230;5.194;2022-12-24T02:59:07;100615.00;;;6.59;93.45
53647;BME280;39550;52.230;5.194;2022-12-24T03:04:28;100615.00;;;6.59;94.16
53647;BME280;39550;52.230;5.194;2022-12-24T03:12:34;100599.63;;;6.57;93.94
53647;BME280;39550;52.230;5.194;2022-12-24T03:15:02;100606.47;;;6.57;93.32
53647;BME280;39550;52.230;5.194;2022-12-24T03:17:28;100605.59;;;6.56;94.18
53647;BME280;39550;52.230;5.194;2022-12-24T03:19:54;100607.28;;;6.56;94.22
53647;BME280;39550;52.230;5.194;2022-12-24T03:22:20;100601.31;;;6.55;93.68
53647;BME280;39550;52.230;5.194;2022-12-24T03:24:46;100611.56;;;6.57;93.51
53647;BME280;39550;52.230;5.194;2022-12-24T03:27:11;100611.56;;;6.57;93.63
53647;BME280;39550;52.230;5.194;2022-12-24T03:29:38;100623.47;;;6.55;93.82
53647;BME280;39550;52.230;5.194;2022-12-24T03:32:04;100625.19;;;6.56;93.42
53647;BME280;39550;52.230;5.194;2022-12-24T03:34:31;100626.94;;;6.57;93.96
53647;BME280;39550;52.230;5.194;2022-12-24T03:36:57;100632.06;;;6.57;93.32
53647;BME280;39550;52.230;5.194;2022-12-24T03:39:22;100628.69;;;6.58;93.10
53647;BME280;39550;52.230;5.194;2022-12-24T03:41:48;100640.63;;;6.59;93.39
53647;BME280;39550;52.230;5.194;2022-12-24T03:44:13;100633.78;;;6.58;93.63
53647;BME280;39550;52.230;5.194;2022-12-24T03:46:38;100633.78;;;6.58;93.18
53647;BME280;39550;52.230;5.194;2022-12-24T03:49:04;100643.19;;;6.59;93.16
53647;BME280;39550;52.230;5.194;2022-12-24T03:51:29;100645.75;;;6.59;93.12
53647;BME280;39550;52.230;5.194;2022-12-24T03:53:55;100636.34;;;6.58;93.85
53647;BME280;39550;52.230;5.194;2022-12-24T03:56:21;100635.50;;;6.59;93.71
53647;BME280;39550;52.230;5.194;2022-12-24T03:58:46;100637.22;;;6.60;93.23
53647;BME280;39550;52.230;5.194;2022-12-24T04:01:12;100637.22;;;6.60;93.42
53647;BME280;39550;52.230;5.194;2022-12-24T04:03:38;100632.97;;;6.60;93.72
53647;BME280;39550;52.230;5.194;2022-12-24T04:06:04;100642.34;;;6.60;93.50
53647;BME280;39550;52.230;5.194;2022-12-24T04:08:30;100657.72;;;6.60;93.06
53647;BME280;39550;52.230;5.194;2022-12-24T04:10:55;100652.59;;;6.60;93.74
53647;BME280;39550;52.230;5.194;2022-12-24T04:13:20;100658.56;;;6.60;93.03
53647;BME280;39550;52.230;5.194;2022-12-24T04:15:55;100653.44;;;6.60;93.73
53647;BME280;39550;52.230;5.194;2022-12-24T04:18:20;100650.84;;;6.59;93.36
53647;BME280;39550;52.230;5.194;2022-12-24T04:20:45;100644.88;;;6.58;93.82
53647;BME280;39550;52.230;5.194;2022-12-24T04:23:11;100649.16;;;6.58;93.25
53647;BME280;39550;52.230;5.194;2022-12-24T04:25:39;100661.09;;;6.59;92.96
53647;BME280;39550;52.230;5.194;2022-12-24T04:28:04;100661.09;;;6.59;93.86
53647;BME280;39550;52.230;5.194;2022-12-24T04:30:29;100666.22;;;6.59;93.19
53647;BME280;39550;52.230;5.194;2022-12-24T04:32:55;100667.97;;;6.60;93.30
53647;BME280;39550;52.230;5.194;2022-12-24T04:35:20;100666.25;;;6.60;93.73
53647;BME280;39550;52.230;5.194;2022-12-24T04:37:46;100667.97;;;6.60;93.26
53647;BME280;39550;52.230;5.194;2022-12-24T04:40:11;100679.91;;;6.59;93.83
53647;BME280;39550;52.230;5.194;2022-12-24T04:42:36;100681.63;;;6.60;93.45
53647;BME280;39550;52.230;5.194;2022-12-24T04:45:01;100684.16;;;6.60;93.37
53647;BME280;39550;52.230;5.194;2022-12-24T04:47:27;100675.66;;;6.61;93.63
53647;BME280;39550;52.230;5.194;2022-12-24T04:49:52;100674.81;;;6.61;93.68
53647;BME280;39550;52.230;5.194;2022-12-24T04:52:17;100672.25;;;6.61;93.11
53647;BME280;39550;52.230;5.194;2022-12-24T04:54:43;100667.97;;;6.60;93.05
53647;BME280;39550;52.230;5.194;2022-12-24T04:57:08;100680.75;;;6.60;93.51
53647;BME280;39550;52.230;5.194;2022-12-24T04:59:33;100679.06;;;6.60;93.24
53647;BME280;39550;52.230;5.194;2022-12-24T05:01:58;100683.31;;;6.60;92.77
53647;BME280;39550;52.230;5.194;2022-12-24T05:04:30;100685.88;;;6.60;93.58
53647;BME280;39550;52.230;5.194;2022-12-24T05:06:56;100679.94;;;6.61;93.55
53647;BME280;39550;52.230;5.194;2022-12-24T05:09:21;100682.50;;;6.61;92.89
53647;BME280;39550;52.230;5.194;2022-12-24T05:11:46;100673.94;;;6.60;93.60
53647;BME280;39550;52.230;5.194;2022-12-24T05:14:12;100678.19;;;6.60;92.91
53647;BME280;39550;52.230;5.194;2022-12-24T05:16:37;100678.19;;;6.60;93.53
53647;BME280;39550;52.230;5.194;2022-12-24T05:19:02;100673.06;;;6.60;93.49
53647;BME280;39550;52.230;5.194;2022-12-24T05:21:28;100675.63;;;6.60;92.95
53647;BME280;39550;52.230;5.194;2022-12-24T05:23:55;100675.63;;;6.60;93.31
53647;BME280;39550;52.230;5.194;2022-12-24T05:26:49;100685.06;;;6.61;93.67
53647;BME280;39550;52.230;5.194;2022-12-24T05:29:15;100685.06;;;6.61;93.50
53647;BME280;39550;52.230;5.194;2022-12-24T05:31:41;100680.78;;;6.61;92.87
53647;BME280;39550;52.230;5.194;2022-12-24T05:34:07;100684.22;;;6.62;92.72
53647;BME280;39550;52.230;5.194;2022-12-24T05:36:33;100690.19;;;6.61;93.25
53647;BME280;39550;52.230;5.194;2022-12-24T05:38:58;100690.19;;;6.61;92.69
53647;BME280;39550;52.230;5.194;2022-12-24T05:41:24;100707.28;;;6.62;93.10
53647;BME280;39550;52.230;5.194;2022-12-24T05:43:49;100702.16;;;6.62;93.40
53647;BME280;39550;52.230;5.194;2022-12-24T05:46:16;100693.59;;;6.61;93.35
53647;BME280;39550;52.230;5.194;2022-12-24T05:48:42;100703.00;;;6.62;93.00
53647;BME280;39550;52.230;5.194;2022-12-24T05:51:08;100703.84;;;6.61;92.96
53647;BME280;39550;52.230;5.194;2022-12-24T05:53:34;100697.03;;;6.62;93.26
53647;BME280;39550;52.230;5.194;2022-12-24T05:56:10;100700.41;;;6.61;93.26
53647;BME280;39550;52.230;5.194;2022-12-24T05:58:36;100695.28;;;6.61;93.42
53647;BME280;39550;52.230;5.194;2022-12-24T06:01:02;100698.72;;;6.61;92.97
53647;BME280;39550;52.230;5.194;2022-12-24T06:03:28;100704.72;;;6.62;93.19
53647;BME280;39550;52.230;5.194;2022-12-24T06:06:00;100717.50;;;6.62;93.33
53647;BME280;39550;52.230;5.194;2022-12-24T06:08:26;100712.41;;;6.62;93.30
53647;BME280;39550;52.230;5.194;2022-12-24T06:10:57;100715.78;;;6.61;93.55
53647;BME280;39550;52.230;5.194;2022-12-24T06:13:22;100707.28;;;6.62;92.80
53647;BME280;39550;52.230;5.194;2022-12-24T06:15:48;100717.50;;;6.62;93.42
53647;BME280;39550;52.230;5.194;2022-12-24T06:18:13;100721.78;;;6.63;93.29
53647;BME280;39550;52.230;5.194;2022-12-24T06:20:39;100723.50;;;6.62;92.98
53647;BME280;39550;52.230;5.194;2022-12-24T06:23:04;100729.44;;;6.61;92.96
53647;BME280;39550;52.230;5.194;2022-12-24T06:25:32;100731.16;;;6.61;93.01
53647;BME280;39550;52.230;5.194;2022-12-24T06:27:58;100727.75;;;6.62;93.55
53647;BME280;39550;52.230;5.194;2022-12-24T06:30:23;100734.59;;;6.63;93.40
53647;BME280;39550;52.230;5.194;2022-12-24T06:32:48;100734.59;;;6.63;93.56
53647;BME280;39550;52.230;5.194;2022-12-24T06:35:14;100741.44;;;6.64;93.42
53647;BME280;39550;52.230;5.194;2022-12-24T06:37:41;100735.47;;;6.63;93.04
53647;BME280;39550;52.230;5.194;2022-12-24T06:40:07;100744.81;;;6.63;93.10
53647;BME280;39550;52.230;5.194;2022-12-24T06:42:32;100752.50;;;6.63;93.23
53647;BME280;39550;52.230;5.194;2022-12-24T06:44:57;100743.97;;;6.62;93.66
53647;BME280;39550;52.230;5.194;2022-12-24T06:47:23;100749.94;;;6.63;93.02
53647;BME280;39550;52.230;5.194;2022-12-24T06:49:50;100754.22;;;6.62;93.38
53647;BME280;39550;52.230;5.194;2022-12-24T06:52:16;100753.41;;;6.63;93.92
53647;BME280;39550;52.230;5.194;2022-12-24T06:54:43;100749.94;;;6.63;92.91
53647;BME280;39550;52.230;5.194;2022-12-24T06:57:11;100756.81;;;6.64;93.01
53647;BME280;39550;52.230;5.194;2022-12-24T06:59:38;100755.94;;;6.63;93.00
53647;BME280;39550;52.230;5.194;2022-12-24T07:02:04;100765.31;;;6.63;93.33
53647;BME280;39550;52.230;5.194;2022-12-24T07:04:31;100759.38;;;6.64;93.11
53647;BME280;39550;52.230;5.194;2022-12-24T07:06:57;100770.44;;;6.63;94.09
53647;BME280;39550;52.230;5.194;2022-12-24T07:09:22;100775.56;;;6.63;93.34
53647;BME280;39550;52.230;5.194;2022-12-24T07:11:48;100770.44;;;6.63;93.72
53647;BME280;39550;52.230;5.194;2022-12-24T07:14:13;100783.22;;;6.63;93.97
53647;BME280;39550;52.230;5.194;2022-12-24T07:16:38;100782.38;;;6.62;93.09
53647;BME280;39550;52.230;5.194;2022-12-24T07:19:03;100783.22;;;6.63;93.22
53647;BME280;39550;52.230;5.194;2022-12-24T07:21:28;100780.69;;;6.63;94.09
53647;BME280;39550;52.230;5.194;2022-12-24T07:23:57;100784.09;;;6.62;93.50
53647;BME280;39550;52.230;5.194;2022-12-24T07:26:22;100786.66;;;6.62;93.38
53647;BME280;39550;52.230;5.194;2022-12-24T07:28:47;100782.38;;;6.62;93.71
53647;BME280;39550;52.230;5.194;2022-12-24T07:31:13;100785.78;;;6.63;93.32
53647;BME280;39550;52.230;5.194;2022-12-24T07:33:38;100790.94;;;6.64;93.03
53647;BME280;39550;52.230;5.194;2022-12-24T07:36:04;100787.53;;;6.64;93.00
53647;BME280;39550;52.230;5.194;2022-12-24T07:38:33;100805.50;;;6.65;93.10
53647;BME280;39550;52.230;5.194;2022-12-24T07:40:58;100816.63;;;6.66;93.59
53647;BME280;39550;52.230;5.194;2022-12-24T07:43:27;100815.72;;;6.65;93.54
53647;BME280;39550;52.230;5.194;2022-12-24T07:45:58;100828.50;;;6.64;93.09
53647;BME280;39550;52.230;5.194;2022-12-24T07:48:24;100828.50;;;6.64;93.47
53647;BME280;39550;52.230;5.194;2022-12-24T07:51:06;100837.94;;;6.65;93.84
53647;BME280;39550;52.230;5.194;2022-12-24T07:53:52;100839.59;;;6.64;93.04
53647;BME280;39550;52.230;5.194;2022-12-24T07:59:39;100854.97;;;6.64;92.98
53647;BME280;39550;52.230;5.194;2022-12-24T08:02:10;100854.97;;;6.64;92.89
53647;BME280;39550;52.230;5.194;2022-12-24T08:06:33;100864.88;;;6.86;92.90
53647;BME280;39550;52.230;5.194;2022-12-24T08:08:58;100881.00;;;6.81;91.99
53647;BME280;39550;52.230;5.194;2022-12-24T08:11:24;100874.88;;;6.76;92.53
53647;BME280;39550;52.230;5.194;2022-12-24T08:13:49;100885.94;;;6.74;93.10
53647;BME280;39550;52.230;5.194;2022-12-24T08:16:14;100887.59;;;6.72;92.80
53647;BME280;39550;52.230;5.194;2022-12-24T08:18:40;100885.00;;;6.70;93.83
53647;BME280;39550;52.230;5.194;2022-12-24T08:21:06;100879.88;;;6.70;92.91
53647;BME280;39550;52.230;5.194;2022-12-24T08:23:32;100895.19;;;6.69;92.96
53647;BME280;39550;52.230;5.194;2022-12-24T08:25:58;100893.50;;;6.69;93.12
53647;BME280;39550;52.230;5.194;2022-12-24T08:28:23;100892.63;;;6.69;93.88
53647;BME280;39550;52.230;5.194;2022-12-24T08:30:49;100902.00;;;6.68;92.91
53647;BME280;39550;52.230;5.194;2022-12-24T08:33:15;100903.75;;;6.69;92.71
53647;BME280;39550;52.230;5.194;2022-12-24T08:35:49;100898.63;;;6.69;93.29
53647;BME280;39550;52.230;5.194;2022-12-24T08:38:15;100907.19;;;6.71;92.69
53647;BME280;39550;52.230;5.194;2022-12-24T08:40:41;100908.91;;;6.71;92.57
53647;BME280;39550;52.230;5.194;2022-12-24T08:43:06;100920.00;;;6.71;93.30
53647;BME280;39550;52.230;5.194;2022-12-24T08:45:31;100915.72;;;6.70;92.73
53647;BME280;39550;52.230;5.194;2022-12-24T08:47:58;100925.97;;;6.70;92.87
53647;BME280;39550;52.230;5.194;2022-12-24T08:50:24;100933.66;;;6.70;92.71
53647;BME280;39550;52.230;5.194;2022-12-24T08:52:50;100931.09;;;6.70;92.96
53647;BME280;39550;52.230;5.194;2022-12-24T08:55:15;100931.03;;;6.69;93.36
53647;BME280;39550;52.230;5.194;2022-12-24T08:57:40;100931.94;;;6.71;93.27
53647;BME280;39550;52.230;5.194;2022-12-24T09:00:07;100930.25;;;6.71;93.04
53647;BME280;39550;52.230;5.194;2022-12-24T09:02:34;100939.66;;;6.72;92.72
53647;BME280;39550;52.230;5.194;2022-12-24T09:04:59;100940.53;;;6.73;93.18
53647;BME280;39550;52.230;5.194;2022-12-24T09:07:24;100958.53;;;6.74;93.13
53647;BME280;39550;52.230;5.194;2022-12-24T09:09:50;100956.78;;;6.73;92.69
53647;BME280;39550;52.230;5.194;2022-12-24T09:12:15;100946.53;;;6.73;92.98
53647;BME280;39550;52.230;5.194;2022-12-24T09:14:40;100961.88;;;6.72;92.85
53647;BME280;39550;52.230;5.194;2022-12-24T09:17:06;100967.03;;;6.73;93.50
53647;BME280;39550;52.230;5.194;2022-12-24T09:19:31;100969.59;;;6.73;93.03
53647;BME280;39550;52.230;5.194;2022-12-24T09:21:56;100964.50;;;6.75;93.15
53647;BME280;39550;52.230;5.194;2022-12-24T09:24:22;100972.16;;;6.73;93.09
53647;BME280;39550;52.230;5.194;2022-12-24T09:26:47;100981.59;;;6.76;92.32
53647;BME280;39550;52.230;5.194;2022-12-24T09:29:14;100982.47;;;6.76;93.06
53647;BME280;39550;52.230;5.194;2022-12-24T09:31:40;100982.50;;;6.78;92.14
53647;BME280;39550;52.230;5.194;2022-12-24T09:34:05;100987.66;;;6.79;92.38
53647;BME280;39550;52.230;5.194;2022-12-24T09:36:32;100991.06;;;6.78;92.26
53647;BME280;39550;52.230;5.194;2022-12-24T09:38:57;100986.81;;;6.79;92.46
53647;BME280;39550;52.230;5.194;2022-12-24T09:49:46;101002.25;;;6.82;92.69
53647;BME280;39550;52.230;5.194;2022-12-24T09:52:41;101016.00;;;6.86;92.80
53647;BME280;39550;52.230;5.194;2022-12-24T09:55:22;101012.56;;;6.85;92.49
53647;BME280;39550;52.230;5.194;2022-12-24T09:57:52;101011.78;;;6.88;93.36
53647;BME280;39550;52.230;5.194;2022-12-24T10:00:25;101004.84;;;6.84;92.75
53647;BME280;39550;52.230;5.194;2022-12-24T10:02:51;101016.03;;;6.87;93.08
53647;BME280;39550;52.230;5.194;2022-12-24T10:05:17;101024.59;;;6.88;93.04
53647;BME280;39550;52.230;5.194;2022-12-24T10:08:09;101021.16;;;6.87;92.55
53647;BME280;39550;52.230;5.194;2022-12-24T10:10:49;101030.78;;;6.96;92.72
53647;BME280;39550;52.230;5.194;2022-12-24T10:13:31;101029.19;;;7.01;91.85
53647;BME280;39550;52.230;5.194;2022-12-24T10:18:36;101012.91;;;6.99;92.72
53647;BME280;39550;52.230;5.194;2022-12-24T10:21:11;101017.16;;;6.97;92.35
53647;BME280;39550;52.230;5.194;2022-12-24T10:27:06;101027.47;;;7.00;92.06
53647;BME280;39550;52.230;5.194;2022-12-24T10:29:38;101016.28;;;6.96;92.29
53647;BME280;39550;52.230;5.194;2022-12-24T10:39:27;101035.06;;;6.97;92.05
53647;BME280;39550;52.230;5.194;2022-12-24T10:41:54;101036.78;;;6.96;92.64
53647;BME280;39550;52.230;5.194;2022-12-24T10:44:29;101040.25;;;6.98;92.31
53647;BME280;39550;52.230;5.194;2022-12-24T10:46:56;101041.94;;;6.98;91.93
53647;BME280;39550;52.230;5.194;2022-12-24T10:49:36;101041.09;;;6.99;92.00
53647;BME280;39550;52.230;5.194;2022-12-24T10:52:08;101029.88;;;6.94;92.01
53647;BME280;39550;52.230;5.194;2022-12-24T10:54:35;101034.16;;;6.95;92.60
53647;BME280;39550;52.230;5.194;2022-12-24T10:57:04;100993.34;;;6.68;92.19
53647;BME280;39550;52.230;5.194;2022-12-24T11:00:20;100874.69;;;6.00;92.50
53647;BME280;39550;52.230;5.194;2022-12-24T11:03:21;100960.34;;;6.46;92.35
53647;BME280;39550;52.230;5.194;2022-12-24T11:08:30;100915.16;;;6.15;91.79
53647;BME280;39550;52.230;5.194;2022-12-24T11:11:03;101047.81;;;6.94;92.94
53647;BME280;39550;52.230;5.194;2022-12-24T11:13:35;100916.09;;;6.19;92.57
53647;BME280;39550;52.230;5.194;2022-12-24T11:16:16;101017.59;;;6.82;92.33
53647;BME280;39550;52.230;5.194;2022-12-24T11:18:51;101042.75;;;6.97;92.40
53647;BME280;39550;52.230;5.194;2022-12-24T11:21:29;100996.00;;;6.72;92.17
53647;BME280;39550;52.230;5.194;2022-12-24T11:24:06;100994.78;;;6.58;91.96
53647;BME280;39550;52.230;5.194;2022-12-24T11:26:33;101008.03;;;6.75;91.70
53647;BME280;39550;52.230;5.194;2022-12-24T11:31:44;101050.53;;;7.00;91.98
53647;BME280;39550;52.230;5.194;2022-12-24T11:34:36;101008.00;;;6.73;92.77
53647;BME280;39550;52.230;5.194;2022-12-24T11:40:45;101076.16;;;7.00;92.77
53647;BME280;39550;52.230;5.194;2022-12-24T11:43:25;100982.56;;;6.47;92.27
53647;BME280;39550;52.230;5.194;2022-12-24T11:46:43;101060.50;;;7.23;92.65
53647;BME280;39550;52.230;5.194;2022-12-24T11:58:42;101069.16;;;7.28;91.84
53647;BME280;39550;52.230;5.194;2022-12-24T12:01:18;101065.00;;;7.31;91.91
53647;BME280;39550;52.230;5.194;2022-12-24T12:03:51;101076.09;;;7.32;92.19
53647;BME280;39550;52.230;5.194;2022-12-24T12:06:37;101074.34;;;7.31;91.94
53647;BME280;39550;52.230;5.194;2022-12-24T12:09:19;101084.78;;;7.37;92.14
53647;BME280;39550;52.230;5.194;2022-12-24T12:11:50;101086.59;;;7.41;91.91
53647;BME280;39550;52.230;5.194;2022-12-24T12:14:33;101085.78;;;7.42;91.75
53647;BME280;39550;52.230;5.194;2022-12-24T12:17:38;101090.88;;;7.41;91.77
53647;BME280;39550;52.230;5.194;2022-12-24T12:20:20;101098.66;;;7.45;91.54
53647;BME280;39550;52.230;5.194;2022-12-24T12:23:02;101100.38;;;7.45;91.10
53647;BME280;39550;52.230;5.194;2022-12-24T12:25:35;101105.44;;;7.43;90.72
53647;BME280;39550;52.230;5.194;2022-12-24T12:28:05;101108.91;;;7.45;90.79
53647;BME280;39550;52.230;5.194;2022-12-24T12:30:34;101100.22;;;7.40;90.90
53647;BME280;39550;52.230;5.194;2022-12-24T12:33:30;101112.31;;;7.44;90.77
53647;BME280;39550;52.230;5.194;2022-12-24T12:36:00;101120.03;;;7.46;90.92
53647;BME280;39550;52.230;5.194;2022-12-24T12:38:27;101109.84;;;7.49;90.98
53647;BME280;39550;52.230;5.194;2022-12-24T12:41:47;101115.88;;;7.51;90.93
53647;BME280;39550;52.230;5.194;2022-12-24T12:44:12;101111.63;;;7.52;91.06
53647;BME280;39550;52.230;5.194;2022-12-24T12:49:18;101120.97;;;7.49;90.90
53647;BME280;39550;52.230;5.194;2022-12-24T12:52:00;101120.09;;;7.49;90.99
53647;BME280;39550;52.230;5.194;2022-12-24T12:57:04;101124.59;;;7.58;90.83
53647;BME280;39550;52.230;5.194;2022-12-24T13:10:36;101133.50;;;7.72;90.01
53647;BME280;39550;52.230;5.194;2022-12-24T13:13:16;101143.81;;;7.75;89.93
53647;BME280;39550;52.230;5.194;2022-12-24T13:19:00;101145.78;;;7.86;89.38
53647;BME280;39550;52.230;5.194;2022-12-24T13:21:30;101145.63;;;7.79;89.42
53647;BME280;39550;52.230;5.194;2022-12-24T13:26:36;101144.88;;;7.83;88.53
53647;BME280;39550;52.230;5.194;2022-12-24T13:29:41;101146.56;;;7.81;88.54
53647;BME280;39550;52.230;5.194;2022-12-24T13:35:02;101156.00;;;7.82;88.66
53647;BME280;39550;52.230;5.194;2022-12-24T13:47:53;101168.06;;;7.87;88.54
53647;BME280;39550;52.230;5.194;2022-12-24T13:50:28;101173.19;;;7.87;88.42
53647;BME280;39550;52.230;5.194;2022-12-24T13:52:58;101177.53;;;7.89;88.79
53647;BME280;39550;52.230;5.194;2022-12-24T13:55:24;101175.00;;;7.91;88.51
53647;BME280;39550;52.230;5.194;2022-12-24T14:00:27;101179.13;;;7.84;88.28
53647;BME280;39550;52.230;5.194;2022-12-24T14:05:35;101183.22;;;7.77;88.64
53647;BME280;39550;52.230;5.194;2022-12-24T14:08:05;101189.13;;;7.75;88.87
53647;BME280;39550;52.230;5.194;2022-12-24T14:10:41;101194.25;;;7.73;89.05
53647;BME280;39550;52.230;5.194;2022-12-24T14:16:08;101198.53;;;7.74;89.50
53647;BME280;39550;52.230;5.194;2022-12-24T14:18:41;101195.00;;;7.69;89.63
53647;BME280;39550;52.230;5.194;2022-12-24T14:21:16;101196.81;;;7.73;89.60
53647;BME280;39550;52.230;5.194;2022-12-24T14:26:34;101195.88;;;7.71;89.21
53647;BME280;39550;52.230;5.194;2022-12-24T14:29:07;101202.69;;;7.69;90.08
53647;BME280;39550;52.230;5.194;2022-12-24T14:31:49;101198.44;;;7.71;89.75
53647;BME280;39550;52.230;5.194;2022-12-24T14:34:15;101201.00;;;7.71;89.26
53647;BME280;39550;52.230;5.194;2022-12-24T14:36:42;101195.69;;;7.63;90.21
53647;BME280;39550;52.230;5.194;2022-12-24T14:39:14;101212.88;;;7.66;90.00
53647;BME280;39550;52.230;5.194;2022-12-24T14:41:59;101206.81;;;7.64;90.34
53647;BME280;39550;52.230;5.194;2022-12-24T14:52:35;101219.50;;;7.58;90.16
53647;BME280;39550;52.230;5.194;2022-12-24T14:55:29;101230.50;;;7.54;90.37
53647;BME280;39550;52.230;5.194;2022-12-24T14:58:26;101233.91;;;7.54;90.63
53647;BME280;39550;52.230;5.194;2022-12-24T15:00:58;101235.56;;;7.50;90.01
53647;BME280;39550;52.230;5.194;2022-12-24T15:03:27;101234.59;;;7.47;90.73
53647;BME280;39550;52.230;5.194;2022-12-24T15:06:04;101238.75;;;7.43;90.53
53647;BME280;39550;52.230;5.194;2022-12-24T15:08:35;101246.56;;;7.46;90.39
53647;BME280;39550;52.230;5.194;2022-12-24T15:11:05;101229.00;;;7.30;90.97
53647;BME280;39550;52.230;5.194;2022-12-24T15:13:39;101253.22;;;7.40;90.64
53647;BME280;39550;52.230;5.194;2022-12-24T15:16:11;101243.72;;;7.37;90.93
53647;BME280;39550;52.230;5.194;2022-12-24T15:18:48;101255.63;;;7.35;90.67